Time;durP1;ratioP1;P1;durP2;ratioP2;P2;SDS_P1;SDS_P2;PMS_P1;PMS_P2;Temp;Humidity;BMP_temperature;BMP_pressure;BME280_temperature;BME280_humidity;BME280_pressure;Samples;Min_cycle;Max_cycle;Signal;HPM_P1;HPM_P2
2021/07/24 00:01:39;;;;;;;21.35;16.20;;;;;;;;;;5053674;28;20420;-88
2021/07/24 00:04:06;;;;;;;18.30;16.17;;;;;;;;;;5047860;28;20750;-87
2021/07/24 00:06:33;;;;;;;19.40;15.90;;;;;;;;;;5062689;28;20480;-86
2021/07/24 00:09:04;;;;;;;19.13;16.88;;;;;;;;;;5059965;28;20398;-87
2021/07/24 00:11:32;;;;;;;20.70;17.38;;;;;;;;;;5046492;28;20403;-87
2021/07/24 00:13:59;;;;;;;22.08;18.73;;;;;;;;;;5060131;28;20488;-88
2021/07/24 00:16:26;;;;;;;20.10;17.90;;;;;;;;;;5059019;28;20477;-86
2021/07/24 00:18:53;;;;;;;20.98;18.08;;;;;;;;;;5055965;28;20404;-87
2021/07/24 00:21:19;;;;;;;21.40;17.95;;;;;;;;;;5063234;28;20472;-88
2021/07/24 00:23:46;;;;;;;23.40;18.10;;;;;;;;;;5063077;28;20401;-88
2021/07/24 00:26:15;;;;;;;21.88;18.02;;;;;;;;;;5063422;28;20410;-87
2021/07/24 00:28:42;;;;;;;21.67;18.92;;;;;;;;;;5055445;28;20404;-87
2021/07/24 00:31:09;;;;;;;23.42;19.45;;;;;;;;;;5053501;28;20404;-86
2021/07/24 00:33:36;;;;;;;23.73;20.15;;;;;;;;;;5047100;28;20489;-85
2021/07/24 00:36:03;;;;;;;23.80;20.00;;;;;;;;;;5044777;28;20416;-86
2021/07/24 00:38:30;;;;;;;22.08;19.23;;;;;;;;;;5050185;28;20404;-87
2021/07/24 00:41:02;;;;;;;23.25;20.33;;;;;;;;;;5041999;28;20400;-86
2021/07/24 00:43:33;;;;;;;24.70;19.38;;;;;;;;;;5041609;28;20426;-87
2021/07/24 00:46:01;;;;;;;22.15;19.63;;;;;;;;;;5042816;28;20450;-88
2021/07/24 00:48:28;;;;;;;22.92;20.10;;;;;;;;;;5042862;28;21292;-87
2021/07/24 00:50:57;;;;;;;23.23;19.88;;;;;;;;;;5043635;28;20406;-88
2021/07/24 00:53:32;;;;;;;21.65;19.27;;;;;;;;;;5047625;28;20404;-87
2021/07/24 00:56:01;;;;;;;23.15;19.10;;;;;;;;;;5040437;28;20432;-88
2021/07/24 00:58:31;;;;;;;21.55;19.13;;;;;;;;;;5043120;28;20416;-87
2021/07/24 01:00:59;;;;;;;21.52;18.63;;;;;;;;;;5043304;28;20465;-87
2021/07/24 01:03:26;;;;;;;23.17;20.20;;;;;;;;;;5043162;28;20411;-87
2021/07/24 01:05:56;;;;;;;25.15;20.00;;;;;;;;;;5042415;28;20418;-87
2021/07/24 01:08:24;;;;;;;23.98;19.95;;;;;;;;;;5043051;28;20461;-87
2021/07/24 01:10:54;;;;;;;23.87;20.63;;;;;;;;;;5043906;28;20490;-88
2021/07/24 01:13:21;;;;;;;22.38;19.67;;;;;;;;;;5046411;28;20417;-88
2021/07/24 01:15:51;;;;;;;24.25;19.63;;;;;;;;;;5047539;28;20408;-88
2021/07/24 01:18:17;;;;;;;23.40;19.02;;;;;;;;;;5047192;28;20398;-88
2021/07/24 01:20:46;;;;;;;21.17;18.88;;;;;;;;;;5047195;28;20413;-87
2021/07/24 01:23:17;;;;;;;20.75;18.40;;;;;;;;;;5043288;28;20403;-87
2021/07/24 01:25:45;;;;;;;22.48;18.60;;;;;;;;;;5047196;28;20429;-87
2021/07/24 01:28:12;;;;;;;21.33;17.98;;;;;;;;;;5043442;28;20460;-87
2021/07/24 01:30:43;;;;;;;21.33;18.20;;;;;;;;;;5046753;28;20461;-87
2021/07/24 01:33:11;;;;;;;22.50;18.50;;;;;;;;;;5047314;28;20413;-87
2021/07/24 01:35:45;;;;;;;21.90;17.80;;;;;;;;;;5043479;28;20504;-87
2021/07/24 01:38:11;;;;;;;21.97;18.43;;;;;;;;;;5043912;28;20396;-85
2021/07/24 01:40:40;;;;;;;19.90;17.55;;;;;;;;;;5043190;28;20960;-87
2021/07/24 01:43:07;;;;;;;19.15;16.83;;;;;;;;;;5043319;28;20408;-87
2021/07/24 01:45:35;;;;;;;21.15;16.88;;;;;;;;;;5042983;28;20411;-87
2021/07/24 01:48:04;;;;;;;19.40;16.10;;;;;;;;;;5043251;28;20395;-87
2021/07/24 01:53:15;;;;;;;18.17;16.17;;;;;;;;;;5020989;28;20426;-87
2021/07/24 01:55:50;;;;;;;20.63;16.35;;;;;;;;;;5042078;28;20803;-87
2021/07/24 01:58:20;;;;;;;18.40;15.95;;;;;;;;;;5041826;28;20885;-87
2021/07/24 02:00:49;;;;;;;22.42;16.77;;;;;;;;;;5042180;28;20461;-87
2021/07/24 02:03:18;;;;;;;20.75;16.40;;;;;;;;;;5052969;28;20456;-87
2021/07/24 02:05:47;;;;;;;19.38;16.42;;;;;;;;;;5049607;28;20400;-87
2021/07/24 02:08:25;;;;;;;19.93;16.10;;;;;;;;;;5051875;28;20801;-86
2021/07/24 02:10:53;;;;;;;21.57;18.07;;;;;;;;;;5058895;28;20410;-86
2021/07/24 02:13:21;;;;;;;20.92;17.48;;;;;;;;;;5053885;28;20463;-88
2021/07/24 02:15:48;;;;;;;19.83;16.90;;;;;;;;;;5053255;28;21279;-87
2021/07/24 02:18:17;;;;;;;23.55;17.70;;;;;;;;;;5050919;28;20402;-87
2021/07/24 02:20:46;;;;;;;20.80;17.67;;;;;;;;;;5052401;28;20403;-87
2021/07/24 02:23:14;;;;;;;23.30;17.93;;;;;;;;;;5051628;28;20416;-86
2021/07/24 02:25:41;;;;;;;22.10;17.98;;;;;;;;;;5054026;28;20882;-88
2021/07/24 02:28:10;;;;;;;21.17;17.55;;;;;;;;;;5054626;28;20401;-87
2021/07/24 02:30:37;;;;;;;24.13;17.48;;;;;;;;;;5051602;28;20404;-87
2021/07/24 02:33:04;;;;;;;23.25;18.75;;;;;;;;;;5052801;28;20827;-87
2021/07/24 02:35:31;;;;;;;21.33;18.95;;;;;;;;;;5046637;28;21247;-87
2021/07/24 02:37:58;;;;;;;22.25;18.25;;;;;;;;;;5053985;28;20743;-86
2021/07/24 02:40:25;;;;;;;24.08;18.98;;;;;;;;;;5058063;28;20443;-87
2021/07/24 02:42:51;;;;;;;23.63;18.73;;;;;;;;;;5050837;28;20425;-87
2021/07/24 02:45:20;;;;;;;19.95;17.83;;;;;;;;;;5057022;28;20402;-86
2021/07/24 02:47:47;;;;;;;23.57;18.00;;;;;;;;;;5053311;28;20820;-88
2021/07/24 02:50:13;;;;;;;21.40;17.63;;;;;;;;;;5050707;28;20420;-86
2021/07/24 02:52:40;;;;;;;21.27;16.95;;;;;;;;;;5053990;28;20451;-87
2021/07/24 02:55:08;;;;;;;22.33;17.17;;;;;;;;;;5051858;28;21375;-87
2021/07/24 02:57:35;;;;;;;19.13;16.83;;;;;;;;;;5051828;28;20421;-86
2021/07/24 03:00:03;;;;;;;21.55;16.75;;;;;;;;;;5050879;28;20400;-87
2021/07/24 03:02:31;;;;;;;19.85;16.88;;;;;;;;;;5053466;28;20498;-87
2021/07/24 03:04:58;;;;;;;24.23;17.33;;;;;;;;;;5053701;28;20414;-87
2021/07/24 03:07:25;;;;;;;22.67;16.35;;;;;;;;;;5053471;28;20455;-87
2021/07/24 03:09:52;;;;;;;22.33;16.92;;;;;;;;;;5054592;28;20481;-86
2021/07/24 03:12:18;;;;;;;21.30;16.67;;;;;;;;;;5050053;28;20407;-87
2021/07/24 03:14:46;;;;;;;19.98;15.77;;;;;;;;;;5051849;28;20502;-87
2021/07/24 03:17:12;;;;;;;21.60;17.30;;;;;;;;;;5058166;28;20422;-87
2021/07/24 03:19:41;;;;;;;22.50;17.20;;;;;;;;;;5048903;28;20403;-87
2021/07/24 03:22:08;;;;;;;19.58;17.30;;;;;;;;;;5052075;28;20447;-86
2021/07/24 03:24:34;;;;;;;21.58;17.80;;;;;;;;;;5050776;28;20498;-87
2021/07/24 03:27:01;;;;;;;21.67;18.67;;;;;;;;;;5056789;28;20405;-86
2021/07/24 03:29:28;;;;;;;21.10;17.83;;;;;;;;;;5052917;28;20420;-87
2021/07/24 03:31:55;;;;;;;21.83;18.27;;;;;;;;;;5053321;28;20414;-87
2021/07/24 03:34:22;;;;;;;22.27;19.05;;;;;;;;;;5044641;28;20803;-86
2021/07/24 03:36:50;;;;;;;23.57;19.63;;;;;;;;;;5056611;28;20507;-86
2021/07/24 03:39:17;;;;;;;23.00;19.38;;;;;;;;;;5052741;28;20410;-87
2021/07/24 03:41:44;;;;;;;21.90;19.55;;;;;;;;;;5056380;28;21384;-87
2021/07/24 03:44:10;;;;;;;23.35;19.67;;;;;;;;;;5053358;28;20461;-87
2021/07/24 03:46:37;;;;;;;22.13;19.35;;;;;;;;;;5056104;28;20479;-88
2021/07/24 03:49:04;;;;;;;21.80;19.50;;;;;;;;;;5061175;28;20891;-86
2021/07/24 03:51:31;;;;;;;21.02;18.70;;;;;;;;;;5054400;28;20396;-87
2021/07/24 03:53:59;;;;;;;21.83;18.52;;;;;;;;;;5056755;28;20399;-87
2021/07/24 03:56:26;;;;;;;23.90;18.83;;;;;;;;;;5052376;28;20407;-87
2021/07/24 03:58:53;;;;;;;20.38;18.05;;;;;;;;;;5045021;28;20412;-87
2021/07/24 04:01:22;;;;;;;20.27;18.02;;;;;;;;;;5056163;28;20438;-87
2021/07/24 04:03:49;;;;;;;23.33;18.80;;;;;;;;;;5048084;28;20414;-85
2021/07/24 04:06:21;;;;;;;23.25;18.42;;;;;;;;;;5049734;28;20409;-87
2021/07/24 04:08:48;;;;;;;19.70;17.17;;;;;;;;;;5051507;28;20506;-86
2021/07/24 04:11:18;;;;;;;20.10;18.00;;;;;;;;;;5047400;28;20412;-87
2021/07/24 04:13:46;;;;;;;19.80;17.70;;;;;;;;;;5045664;28;20495;-87
2021/07/24 04:16:13;;;;;;;20.10;17.10;;;;;;;;;;5045880;28;20953;-87
2021/07/24 04:18:40;;;;;;;22.10;17.65;;;;;;;;;;5050346;28;20407;-87
2021/07/24 04:21:07;;;;;;;21.13;17.48;;;;;;;;;;5047291;28;20407;-86
2021/07/24 04:23:33;;;;;;;18.95;16.95;;;;;;;;;;5047555;28;20404;-86
2021/07/24 04:26:00;;;;;;;20.83;16.97;;;;;;;;;;5046639;28;20407;-87
2021/07/24 04:28:29;;;;;;;19.88;16.67;;;;;;;;;;5044744;28;21017;-86
2021/07/24 04:30:56;;;;;;;21.90;16.98;;;;;;;;;;5047723;28;20392;-88
2021/07/24 04:33:22;;;;;;;18.48;16.48;;;;;;;;;;5046562;28;20464;-87
2021/07/24 04:35:50;;;;;;;19.75;16.45;;;;;;;;;;5050134;28;20469;-87
2021/07/24 04:38:17;;;;;;;20.55;16.58;;;;;;;;;;5050380;28;20426;-87
2021/07/24 04:40:45;;;;;;;21.35;16.13;;;;;;;;;;5043657;28;20411;-87
2021/07/24 04:43:13;;;;;;;19.23;15.65;;;;;;;;;;5045770;28;20741;-86
2021/07/24 04:45:43;;;;;;;19.38;16.02;;;;;;;;;;5048486;28;20400;-88
2021/07/24 04:48:10;;;;;;;20.37;15.10;;;;;;;;;;5047781;28;20473;-87
2021/07/24 04:50:41;;;;;;;19.02;16.13;;;;;;;;;;5045536;28;21146;-87
2021/07/24 04:53:08;;;;;;;20.50;15.65;;;;;;;;;;5051076;28;20400;-87
2021/07/24 04:55:37;;;;;;;20.53;16.13;;;;;;;;;;5049619;28;20408;-87
2021/07/24 04:58:06;;;;;;;19.17;15.50;;;;;;;;;;5052951;28;20432;-86
2021/07/24 05:00:34;;;;;;;18.90;15.13;;;;;;;;;;5053501;28;20400;-87
2021/07/24 05:03:02;;;;;;;20.48;15.38;;;;;;;;;;5046583;28;20395;-88
2021/07/24 05:05:29;;;;;;;18.63;15.73;;;;;;;;;;5050180;28;20391;-87
2021/07/24 05:07:56;;;;;;;19.02;15.05;;;;;;;;;;5048276;28;20411;-87
2021/07/24 05:10:23;;;;;;;20.02;14.63;;;;;;;;;;5042702;28;20396;-87
2021/07/24 05:12:50;;;;;;;16.90;14.10;;;;;;;;;;5049195;28;20402;-86
2021/07/24 05:15:17;;;;;;;16.65;14.25;;;;;;;;;;5044836;28;20425;-87
2021/07/24 05:17:44;;;;;;;17.40;14.52;;;;;;;;;;5048944;28;20477;-87
2021/07/24 05:20:12;;;;;;;17.00;14.20;;;;;;;;;;5045944;28;20404;-87
2021/07/24 05:22:39;;;;;;;15.90;13.70;;;;;;;;;;5044860;28;20469;-87
2021/07/24 05:25:07;;;;;;;15.55;13.88;;;;;;;;;;5049388;28;20799;-87
2021/07/24 05:27:34;;;;;;;16.40;13.75;;;;;;;;;;5043049;28;20910;-86
2021/07/24 05:30:01;;;;;;;16.17;13.80;;;;;;;;;;5048586;28;20461;-88
2021/07/24 05:32:28;;;;;;;16.63;13.45;;;;;;;;;;5047237;28;20399;-86
2021/07/24 05:34:55;;;;;;;14.93;13.27;;;;;;;;;;5049963;28;20406;-87
2021/07/24 05:37:23;;;;;;;14.05;12.52;;;;;;;;;;5048278;28;20483;-87
2021/07/24 05:39:50;;;;;;;14.60;12.18;;;;;;;;;;5046845;28;20408;-86
2021/07/24 05:42:16;;;;;;;14.07;12.15;;;;;;;;;;5046780;28;20791;-87
2021/07/24 05:44:43;;;;;;;13.88;11.80;;;;;;;;;;5047903;28;20407;-87
2021/07/24 05:47:10;;;;;;;14.93;12.35;;;;;;;;;;5045803;28;21128;-87
2021/07/24 05:49:37;;;;;;;15.13;12.13;;;;;;;;;;5043631;28;20415;-86
2021/07/24 05:52:08;;;;;;;13.73;11.73;;;;;;;;;;5045431;28;20399;-87
2021/07/24 05:54:37;;;;;;;16.00;12.65;;;;;;;;;;5049505;28;21253;-86
2021/07/24 05:57:05;;;;;;;14.98;12.55;;;;;;;;;;5047229;28;20407;-87
2021/07/24 05:59:32;;;;;;;13.95;11.93;;;;;;;;;;5044772;28;20876;-86
2021/07/24 06:01:59;;;;;;;14.70;12.43;;;;;;;;;;5047756;28;20976;-88
2021/07/24 06:04:26;;;;;;;15.55;12.23;;;;;;;;;;5045586;28;20407;-87
2021/07/24 06:06:52;;;;;;;13.02;11.60;;;;;;;;;;5046906;28;20459;-87
2021/07/24 06:09:19;;;;;;;15.63;11.67;;;;;;;;;;5045253;28;20416;-87
2021/07/24 06:11:48;;;;;;;12.70;11.00;;;;;;;;;;5044859;28;20408;-88
2021/07/24 06:14:15;;;;;;;13.82;11.77;;;;;;;;;;5057553;28;20410;-90
2021/07/24 06:16:42;;;;;;;15.05;11.95;;;;;;;;;;5030040;28;20409;-88
2021/07/24 06:19:08;;;;;;;15.10;11.98;;;;;;;;;;5036581;28;20437;-88
2021/07/24 06:21:35;;;;;;;14.48;11.98;;;;;;;;;;5033281;28;20409;-87
2021/07/24 06:24:02;;;;;;;13.65;11.77;;;;;;;;;;5038495;28;20419;-89
2021/07/24 06:26:29;;;;;;;16.07;12.07;;;;;;;;;;5035194;28;20425;-88
2021/07/24 06:28:57;;;;;;;13.10;11.17;;;;;;;;;;5038364;28;20398;-89
2021/07/24 06:31:25;;;;;;;13.23;11.32;;;;;;;;;;5038688;28;20402;-88
2021/07/24 06:33:52;;;;;;;12.77;11.45;;;;;;;;;;5036104;28;20756;-88
2021/07/24 06:36:19;;;;;;;12.00;10.73;;;;;;;;;;5040772;28;20963;-89
2021/07/24 06:38:46;;;;;;;14.50;11.68;;;;;;;;;;5039860;28;20949;-87
2021/07/24 06:41:13;;;;;;;14.57;12.00;;;;;;;;;;5039139;28;20412;-89
2021/07/24 06:43:40;;;;;;;14.27;11.10;;;;;;;;;;5037695;28;20932;-88
2021/07/24 06:46:11;;;;;;;12.57;10.95;;;;;;;;;;5040549;28;20867;-88
2021/07/24 06:48:38;;;;;;;13.15;11.15;;;;;;;;;;5052849;28;20897;-87
2021/07/24 06:51:06;;;;;;;11.60;10.40;;;;;;;;;;5047758;28;20407;-87
2021/07/24 06:53:34;;;;;;;12.70;10.07;;;;;;;;;;5043176;28;20498;-88
2021/07/24 06:56:00;;;;;;;11.88;10.13;;;;;;;;;;5048386;28;20674;-87
2021/07/24 06:58:27;;;;;;;11.57;10.32;;;;;;;;;;5049344;28;20481;-88
2021/07/24 07:00:54;;;;;;;13.82;10.18;;;;;;;;;;5043156;28;20402;-90
2021/07/24 07:03:22;;;;;;;12.95;10.27;;;;;;;;;;5050245;28;20457;-88
2021/07/24 07:05:49;;;;;;;11.55;10.07;;;;;;;;;;5052883;28;20463;-87
2021/07/24 07:08:16;;;;;;;11.73;10.13;;;;;;;;;;5052779;28;20488;-87
2021/07/24 07:10:43;;;;;;;12.30;10.27;;;;;;;;;;5051183;28;20736;-87
2021/07/24 07:13:10;;;;;;;13.18;9.88;;;;;;;;;;5053091;28;20408;-88
2021/07/24 07:15:37;;;;;;;12.27;9.73;;;;;;;;;;5054733;28;20463;-90
2021/07/24 07:18:04;;;;;;;12.95;10.00;;;;;;;;;;5051409;28;20686;-88
2021/07/24 07:20:33;;;;;;;10.93;9.50;;;;;;;;;;5048967;28;20396;-91
2021/07/24 07:23:00;;;;;;;11.27;9.73;;;;;;;;;;5047803;28;20406;-89
2021/07/24 07:25:27;;;;;;;11.80;9.93;;;;;;;;;;5048898;28;20405;-88
2021/07/24 07:27:54;;;;;;;12.80;9.43;;;;;;;;;;5053229;28;20402;-90
2021/07/24 07:30:21;;;;;;;10.90;9.43;;;;;;;;;;5053465;28;20687;-85
2021/07/24 07:32:48;;;;;;;12.57;9.77;;;;;;;;;;5031468;28;21234;-86
2021/07/24 07:35:14;;;;;;;12.53;9.80;;;;;;;;;;5048760;28;20875;-85
2021/07/24 07:37:51;;;;;;;11.45;9.38;;;;;;;;;;5044783;28;20424;-88
2021/07/24 07:40:19;;;;;;;11.95;10.10;;;;;;;;;;5048569;28;20495;-88
2021/07/24 07:42:46;;;;;;;9.88;8.90;;;;;;;;;;5048468;28;20410;-88
2021/07/24 07:45:13;;;;;;;11.20;9.52;;;;;;;;;;5050784;28;20412;-88
2021/07/24 07:47:40;;;;;;;11.27;9.88;;;;;;;;;;5055033;28;20394;-90
2021/07/24 07:50:09;;;;;;;12.50;10.48;;;;;;;;;;5051699;28;20883;-88
2021/07/24 07:52:36;;;;;;;11.70;9.85;;;;;;;;;;5047281;28;20550;-89
2021/07/24 07:55:06;;;;;;;12.93;10.63;;;;;;;;;;5053359;28;20406;-88
2021/07/24 07:57:33;;;;;;;13.05;10.63;;;;;;;;;;5039276;28;20409;-89
2021/07/24 08:00:00;;;;;;;13.45;10.63;;;;;;;;;;5042471;28;20422;-88
2021/07/24 08:02:27;;;;;;;13.50;10.48;;;;;;;;;;5053061;28;20408;-89
2021/07/24 08:04:54;;;;;;;11.57;9.88;;;;;;;;;;5054451;28;20894;-88
2021/07/24 08:07:21;;;;;;;12.20;10.45;;;;;;;;;;5049676;28;20459;-88
2021/07/24 08:09:48;;;;;;;11.70;10.50;;;;;;;;;;5051774;28;20393;-89
2021/07/24 08:12:16;;;;;;;12.15;10.85;;;;;;;;;;5048671;28;20395;-89
2021/07/24 08:14:43;;;;;;;11.73;10.23;;;;;;;;;;5049896;28;20945;-88
2021/07/24 08:17:10;;;;;;;13.73;10.15;;;;;;;;;;5050764;28;20453;-88
2021/07/24 08:19:37;;;;;;;11.75;9.85;;;;;;;;;;5052668;28;20974;-87
2021/07/24 08:22:04;;;;;;;12.15;10.23;;;;;;;;;;5047373;28;20404;-88
2021/07/24 08:24:31;;;;;;;13.93;10.55;;;;;;;;;;5049213;28;20392;-88
2021/07/24 08:26:58;;;;;;;16.95;11.45;;;;;;;;;;5047032;28;20509;-88
2021/07/24 08:29:26;;;;;;;13.27;10.37;;;;;;;;;;5050553;28;20397;-88
2021/07/24 08:31:53;;;;;;;13.68;10.60;;;;;;;;;;5050451;28;21301;-88
2021/07/24 08:34:20;;;;;;;11.82;9.95;;;;;;;;;;5050171;28;20415;-87
2021/07/24 08:36:46;;;;;;;13.90;10.82;;;;;;;;;;5052523;28;20408;-88
2021/07/24 08:39:13;;;;;;;12.82;10.85;;;;;;;;;;5047718;28;20427;-86
2021/07/24 08:41:41;;;;;;;15.38;11.30;;;;;;;;;;5051455;28;20406;-88
2021/07/24 08:44:11;;;;;;;12.88;10.35;;;;;;;;;;5048452;28;20483;-89
2021/07/24 08:46:39;;;;;;;11.90;10.63;;;;;;;;;;5039064;28;20403;-89
2021/07/24 08:49:06;;;;;;;12.65;11.27;;;;;;;;;;5042032;28;20570;-87
2021/07/24 08:51:37;;;;;;;14.30;10.98;;;;;;;;;;5041566;28;20842;-89
2021/07/24 08:54:06;;;;;;;14.27;11.45;;;;;;;;;;5042189;28;20891;-89
2021/07/24 08:56:44;;;;;;;11.90;10.57;;;;;;;;;;5045461;28;20411;-90
2021/07/24 08:59:12;;;;;;;16.23;11.55;;;;;;;;;;5042962;28;20423;-89
2021/07/24 09:01:41;;;;;;;12.57;10.70;;;;;;;;;;5045272;28;20407;-89
2021/07/24 09:04:09;;;;;;;12.10;10.67;;;;;;;;;;5044381;28;20669;-87
2021/07/24 09:06:35;;;;;;;12.75;10.75;;;;;;;;;;5030450;28;20400;-89
2021/07/24 09:09:04;;;;;;;12.27;10.82;;;;;;;;;;5049041;28;20404;-89
2021/07/24 09:11:31;;;;;;;13.30;10.20;;;;;;;;;;5044971;28;20407;-88
2021/07/24 09:13:58;;;;;;;14.43;10.73;;;;;;;;;;5052236;28;20956;-89
2021/07/24 09:16:26;;;;;;;11.88;10.68;;;;;;;;;;5048345;28;20449;-89
2021/07/24 09:18:58;;;;;;;15.43;10.50;;;;;;;;;;5046852;28;20422;-90
2021/07/24 09:21:26;;;;;;;11.40;9.77;;;;;;;;;;5045294;28;20918;-89
2021/07/24 09:23:53;;;;;;;11.05;9.88;;;;;;;;;;5023860;28;20438;-88
2021/07/24 09:26:34;;;;;;;11.75;9.80;;;;;;;;;;5040560;28;20411;-89
2021/07/24 09:29:11;;;;;;;13.52;9.88;;;;;;;;;;5041907;28;21004;-89
2021/07/24 09:31:39;;;;;;;11.35;10.15;;;;;;;;;;5055597;28;20439;-89
2021/07/24 09:34:08;;;;;;;11.15;9.68;;;;;;;;;;5052406;28;20840;-88
2021/07/24 09:36:36;;;;;;;11.48;10.27;;;;;;;;;;5047257;28;20399;-92
2021/07/24 09:39:11;;;;;;;11.35;9.82;;;;;;;;;;5026376;28;20423;-92
2021/07/24 09:41:39;;;;;;;11.03;9.80;;;;;;;;;;5047105;28;20447;-91
2021/07/24 09:44:06;;;;;;;11.80;10.23;;;;;;;;;;5038955;28;20862;-90
2021/07/24 09:46:33;;;;;;;11.18;9.77;;;;;;;;;;5030084;28;20399;-92
2021/07/24 09:49:13;;;;;;;11.27;9.88;;;;;;;;;;5049679;28;20393;-91
2021/07/24 09:51:43;;;;;;;12.17;10.77;;;;;;;;;;5023224;28;20469;-90
2021/07/24 09:54:25;;;;;;;11.77;10.35;;;;;;;;;;5018333;28;20437;-92
2021/07/24 09:56:52;;;;;;;10.88;9.77;;;;;;;;;;5032787;28;20856;-91
2021/07/24 09:59:20;;;;;;;11.30;10.10;;;;;;;;;;5032947;28;20429;-91
2021/07/24 10:01:54;;;;;;;12.38;9.98;;;;;;;;;;5040831;28;20473;-91
2021/07/24 10:04:27;;;;;;;14.00;10.30;;;;;;;;;;5040962;28;20428;-92
2021/07/24 10:06:56;;;;;;;12.45;9.93;;;;;;;;;;5049848;28;20815;-92
2021/07/24 10:09:27;;;;;;;13.38;10.48;;;;;;;;;;5045828;28;20404;-92
2021/07/24 10:11:55;;;;;;;12.82;9.93;;;;;;;;;;5050822;28;20404;-91
2021/07/24 10:14:22;;;;;;;13.40;10.17;;;;;;;;;;5052534;28;20400;-90
2021/07/24 10:16:50;;;;;;;14.52;10.48;;;;;;;;;;5053752;28;20408;-90
2021/07/24 10:19:18;;;;;;;10.98;9.68;;;;;;;;;;5046301;28;20430;-90
2021/07/24 10:21:46;;;;;;;11.50;10.30;;;;;;;;;;5054203;28;20419;-91
2021/07/24 10:24:14;;;;;;;11.48;9.95;;;;;;;;;;5039308;28;20966;-92
2021/07/24 10:26:48;;;;;;;11.60;10.38;;;;;;;;;;5054855;28;20410;-92
2021/07/24 10:29:19;;;;;;;12.63;11.20;;;;;;;;;;5047726;28;20445;-90
2021/07/24 10:31:52;;;;;;;12.23;10.85;;;;;;;;;;5045617;28;20844;-91
2021/07/24 10:34:23;;;;;;;12.23;10.93;;;;;;;;;;5043812;28;20498;-90
2021/07/24 10:36:52;;;;;;;12.40;11.20;;;;;;;;;;5045471;28;20491;-92
2021/07/24 10:39:23;;;;;;;13.38;10.73;;;;;;;;;;5049488;28;20490;-91
2021/07/24 10:41:51;;;;;;;12.18;10.15;;;;;;;;;;5053968;28;20434;-92
2021/07/24 10:44:36;;;;;;;11.35;10.15;;;;;;;;;;5051138;28;20443;-89
2021/07/24 10:47:18;;;;;;;14.55;10.70;;;;;;;;;;5046674;28;20415;-92
2021/07/24 10:50:04;;;;;;;12.55;9.82;;;;;;;;;;5050697;28;20979;-93
2021/07/24 10:53:14;;;;;;;12.20;10.40;;;;;;;;;;5061219;28;20961;-93
2021/07/24 10:55:51;;;;;;;13.90;11.00;;;;;;;;;;5046185;28;20411;-93
2021/07/24 10:58:19;;;;;;;13.18;10.73;;;;;;;;;;5044447;28;20419;-87
2021/07/24 11:00:54;;;;;;;11.97;10.53;;;;;;;;;;5045013;28;20401;-93
2021/07/24 11:03:41;;;;;;;10.80;9.70;;;;;;;;;;5034428;28;20424;-94
2021/07/24 11:06:27;;;;;;;11.98;10.27;;;;;;;;;;5045315;28;20431;-92
2021/07/24 11:09:20;;;;;;;11.25;10.05;;;;;;;;;;5055313;28;20408;-92
2021/07/24 11:11:49;;;;;;;11.43;10.33;;;;;;;;;;5058747;28;20489;-93
2021/07/24 11:14:50;;;;;;;11.73;10.23;;;;;;;;;;5044493;28;20423;-94
2021/07/24 11:17:18;;;;;;;11.35;10.15;;;;;;;;;;5057568;28;20410;-93
2021/07/24 11:20:08;;;;;;;12.55;9.73;;;;;;;;;;5044962;28;20477;-94
2021/07/24 11:22:37;;;;;;;11.43;9.00;;;;;;;;;;5034632;28;20893;-94
2021/07/24 11:25:33;;;;;;;11.32;9.45;;;;;;;;;;5037513;28;20507;-95
2021/07/24 11:28:01;;;;;;;9.70;8.70;;;;;;;;;;5039391;28;20948;-95
2021/07/24 11:30:28;;;;;;;10.52;8.95;;;;;;;;;;5029180;28;20443;-96
2021/07/24 11:32:56;;;;;;;10.43;9.40;;;;;;;;;;5031017;28;20465;-95
2021/07/24 11:35:29;;;;;;;11.63;9.00;;;;;;;;;;5049589;28;20814;-94
2021/07/24 11:37:57;;;;;;;12.10;8.90;;;;;;;;;;5048533;28;20422;-94
2021/07/24 11:40:25;;;;;;;10.13;8.50;;;;;;;;;;5049545;28;20526;-93
2021/07/24 11:43:06;;;;;;;10.30;9.00;;;;;;;;;;5045363;28;20434;-92
2021/07/24 11:45:34;;;;;;;9.02;7.97;;;;;;;;;;5056987;28;20447;-90
2021/07/24 11:48:13;;;;;;;11.88;8.00;;;;;;;;;;5048038;28;20408;-94
2021/07/24 11:50:44;;;;;;;10.27;7.75;;;;;;;;;;5052543;28;20513;-92
2021/07/24 11:53:14;;;;;;;9.63;7.60;;;;;;;;;;5043471;28;20437;-93
2021/07/24 11:58:19;;;;;;;9.82;7.20;;;;;;;;;;5047777;28;20480;-93
2021/07/24 12:00:50;;;;;;;11.35;7.50;;;;;;;;;;5049702;28;20924;-90
2021/07/24 12:03:24;;;;;;;9.97;7.87;;;;;;;;;;5054904;28;20406;-92
2021/07/24 12:05:57;;;;;;;10.52;7.95;;;;;;;;;;5057972;28;20417;-90
2021/07/24 12:08:28;;;;;;;9.23;8.05;;;;;;;;;;5059341;28;20860;-86
2021/07/24 12:10:58;;;;;;;10.70;7.95;;;;;;;;;;5054396;28;20419;-90
2021/07/24 12:13:28;;;;;;;10.98;8.63;;;;;;;;;;5063915;28;21041;-91
2021/07/24 12:16:05;;;;;;;13.53;8.53;;;;;;;;;;5064791;28;20483;-91
2021/07/24 12:18:38;;;;;;;10.70;8.75;;;;;;;;;;5059975;28;20406;-91
2021/07/24 12:21:10;;;;;;;10.90;8.63;;;;;;;;;;5061559;28;20471;-92
2021/07/24 12:23:42;;;;;;;9.45;8.38;;;;;;;;;;5062808;28;20409;-91
2021/07/24 12:26:14;;;;;;;11.10;9.32;;;;;;;;;;5060477;28;20406;-91
2021/07/24 12:28:43;;;;;;;10.43;8.87;;;;;;;;;;5059620;28;20402;-91
2021/07/24 12:31:21;;;;;;;10.37;8.70;;;;;;;;;;5060123;28;20402;-91
2021/07/24 12:33:52;;;;;;;10.13;9.02;;;;;;;;;;5060835;28;20404;-91
2021/07/24 12:36:21;;;;;;;9.57;8.57;;;;;;;;;;5062803;28;20758;-91
2021/07/24 12:38:50;;;;;;;10.20;9.10;;;;;;;;;;5062547;28;20434;-91
2021/07/24 12:41:17;;;;;;;13.05;9.20;;;;;;;;;;5062839;28;20945;-89
2021/07/24 12:44:08;;;;;;;9.93;8.80;;;;;;;;;;5057839;28;20951;-91
2021/07/24 12:46:36;;;;;;;11.43;9.07;;;;;;;;;;5060882;28;20409;-91
2021/07/24 12:49:04;;;;;;;10.73;9.00;;;;;;;;;;5058055;28;20889;-90
2021/07/24 12:51:36;;;;;;;10.35;9.35;;;;;;;;;;5060992;28;20785;-90
2021/07/24 12:54:12;;;;;;;10.30;9.25;;;;;;;;;;5059430;28;20402;-90
2021/07/24 12:56:39;;;;;;;10.18;9.18;;;;;;;;;;5061790;28;20409;-90
2021/07/24 12:59:08;;;;;;;11.18;9.98;;;;;;;;;;5061918;28;20413;-91
2021/07/24 13:01:38;;;;;;;11.15;9.57;;;;;;;;;;5061465;28;21175;-90
2021/07/24 13:04:05;;;;;;;10.98;9.70;;;;;;;;;;5061184;28;20410;-93
2021/07/24 13:06:32;;;;;;;12.02;9.30;;;;;;;;;;5059624;28;20394;-90
2021/07/24 13:08:59;;;;;;;11.50;9.30;;;;;;;;;;5061645;28;20901;-90
2021/07/24 13:11:26;;;;;;;13.77;9.02;;;;;;;;;;5059880;28;20813;-91
2021/07/24 13:13:53;;;;;;;10.88;8.80;;;;;;;;;;5061371;28;20445;-92
2021/07/24 13:16:22;;;;;;;10.95;9.15;;;;;;;;;;5060067;28;20406;-91
2021/07/24 13:18:49;;;;;;;10.50;8.85;;;;;;;;;;5059696;28;20424;-91
2021/07/24 13:21:16;;;;;;;10.38;9.27;;;;;;;;;;5061325;28;20809;-90
2021/07/24 13:23:45;;;;;;;10.63;9.40;;;;;;;;;;5059758;28;20414;-91
2021/07/24 13:28:57;;;;;;;12.37;9.50;;;;;;;;;;5060005;28;20622;-90
2021/07/24 13:31:25;;;;;;;11.73;9.32;;;;;;;;;;5060239;28;20401;-90
2021/07/24 13:33:53;;;;;;;9.63;8.68;;;;;;;;;;5059830;28;20413;-90
2021/07/24 13:36:20;;;;;;;11.93;8.47;;;;;;;;;;5056606;28;20898;-91
2021/07/24 13:38:49;;;;;;;12.57;8.57;;;;;;;;;;5058233;28;20455;-91
2021/07/24 13:41:16;;;;;;;9.73;8.30;;;;;;;;;;5059556;28;20479;-91
2021/07/24 13:43:43;;;;;;;10.07;8.40;;;;;;;;;;5058418;28;20399;-91
2021/07/24 13:46:09;;;;;;;9.95;8.27;;;;;;;;;;5061109;28;20402;-91
2021/07/24 13:48:44;;;;;;;9.63;8.63;;;;;;;;;;5056581;28;20414;-91
2021/07/24 13:51:12;;;;;;;9.98;8.32;;;;;;;;;;5058533;28;20395;-91
2021/07/24 13:53:41;;;;;;;10.93;8.80;;;;;;;;;;5060506;28;20484;-91
2021/07/24 13:56:08;;;;;;;10.82;8.55;;;;;;;;;;5059407;28;20429;-92
2021/07/24 13:58:35;;;;;;;9.87;8.33;;;;;;;;;;5057738;28;20440;-90
2021/07/24 14:01:02;;;;;;;11.30;9.27;;;;;;;;;;5060804;28;20793;-90
2021/07/24 14:03:29;;;;;;;10.95;8.25;;;;;;;;;;5060701;28;20406;-91
2021/07/24 14:06:03;;;;;;;11.98;8.77;;;;;;;;;;5056845;28;20881;-91
2021/07/24 14:08:30;;;;;;;10.00;8.53;;;;;;;;;;5059454;28;20402;-91
2021/07/24 14:10:57;;;;;;;11.43;9.07;;;;;;;;;;5057036;28;20394;-91
2021/07/24 14:13:32;;;;;;;10.57;8.90;;;;;;;;;;5060810;28;20485;-90
2021/07/24 14:15:58;;;;;;;10.75;9.40;;;;;;;;;;5059209;28;20434;-91
2021/07/24 14:18:27;;;;;;;10.05;8.98;;;;;;;;;;5058938;28;20443;-90
2021/07/24 14:20:54;;;;;;;10.27;9.23;;;;;;;;;;5060439;28;20905;-91
2021/07/24 14:23:22;;;;;;;10.45;9.02;;;;;;;;;;5060808;28;20402;-91
2021/07/24 14:25:49;;;;;;;10.80;8.80;;;;;;;;;;5060518;28;20447;-91
2021/07/24 14:28:16;;;;;;;9.55;8.52;;;;;;;;;;5060171;28;21358;-91
2021/07/24 14:30:50;;;;;;;9.38;8.35;;;;;;;;;;5057971;28;20400;-91
2021/07/24 14:33:17;;;;;;;9.68;8.65;;;;;;;;;;5059819;28;20839;-92
2021/07/24 14:35:44;;;;;;;12.98;8.90;;;;;;;;;;5058591;28;20977;-91
2021/07/24 14:38:11;;;;;;;10.00;8.23;;;;;;;;;;5059529;28;20398;-91
2021/07/24 14:40:39;;;;;;;9.70;8.17;;;;;;;;;;5059483;28;21042;-91